sensor_id;sensor_type;location;lat;lon;timestamp;temperature;humidity
1329;DHT22;658;48.820;9.354;2023-09-19T00:01:39;23.90;63.60
1329;DHT22;658;48.820;9.354;2023-09-19T00:05:42;23.90;63.40
1329;DHT22;658;48.820;9.354;2023-09-19T00:09:44;23.90;63.40
1329;DHT22;658;48.820;9.354;2023-09-19T00:13:47;23.90;63.50
1329;DHT22;658;48.820;9.354;2023-09-19T00:17:52;23.90;63.70
1329;DHT22;658;48.820;9.354;2023-09-19T00:21:53;23.90;64.30
1329;DHT22;658;48.820;9.354;2023-09-19T00:25:54;23.90;64.30
1329;DHT22;658;48.820;9.354;2023-09-19T00:29:58;23.80;64.20
1329;DHT22;658;48.820;9.354;2023-09-19T00:33:59;23.90;63.90
1329;DHT22;658;48.820;9.354;2023-09-19T00:38:04;23.80;63.90
1329;DHT22;658;48.820;9.354;2023-09-19T00:42:07;23.80;64.20
1329;DHT22;658;48.820;9.354;2023-09-19T00:46:08;23.80;63.80
1329;DHT22;658;48.820;9.354;2023-09-19T00:50:09;23.80;63.80
1329;DHT22;658;48.820;9.354;2023-09-19T00:54:11;23.80;63.80
1329;DHT22;658;48.820;9.354;2023-09-19T00:58:18;23.80;63.90
1329;DHT22;658;48.820;9.354;2023-09-19T01:02:19;23.80;64.40
1329;DHT22;658;48.820;9.354;2023-09-19T01:06:22;23.80;64.70
1329;DHT22;658;48.820;9.354;2023-09-19T01:10:23;23.80;64.70
1329;DHT22;658;48.820;9.354;2023-09-19T01:14:38;23.80;64.90
1329;DHT22;658;48.820;9.354;2023-09-19T01:23:11;23.80;64.30
1329;DHT22;658;48.820;9.354;2023-09-19T01:31:21;23.80;64.30
1329;DHT22;658;48.820;9.354;2023-09-19T01:35:24;23.80;64.60
1329;DHT22;658;48.820;9.354;2023-09-19T01:39:24;23.80;64.30
1329;DHT22;658;48.820;9.354;2023-09-19T01:43:42;23.80;64.30
1329;DHT22;658;48.820;9.354;2023-09-19T01:47:49;23.80;64.10
1329;DHT22;658;48.820;9.354;2023-09-19T01:52:11;23.70;64.40
1329;DHT22;658;48.820;9.354;2023-09-19T01:56:28;23.70;63.90
1329;DHT22;658;48.820;9.354;2023-09-19T02:00:36;23.70;64.20
1329;DHT22;658;48.820;9.354;2023-09-19T02:04:38;23.80;64.40
1329;DHT22;658;48.820;9.354;2023-09-19T02:08:39;23.70;64.00
1329;DHT22;658;48.820;9.354;2023-09-19T02:12:39;23.70;63.90
1329;DHT22;658;48.820;9.354;2023-09-19T02:16:40;23.70;63.90
1329;DHT22;658;48.820;9.354;2023-09-19T02:20:41;23.70;63.90
1329;DHT22;658;48.820;9.354;2023-09-19T02:24:41;23.80;64.20
1329;DHT22;658;48.820;9.354;2023-09-19T02:28:42;23.70;63.70
1329;DHT22;658;48.820;9.354;2023-09-19T02:32:42;23.70;63.70
1329;DHT22;658;48.820;9.354;2023-09-19T02:36:43;23.70;63.70
1329;DHT22;658;48.820;9.354;2023-09-19T02:40:45;23.80;63.90
1329;DHT22;658;48.820;9.354;2023-09-19T02:44:45;23.70;63.70
1329;DHT22;658;48.820;9.354;2023-09-19T02:48:47;23.70;63.70
1329;DHT22;658;48.820;9.354;2023-09-19T02:52:48;23.70;63.90
1329;DHT22;658;48.820;9.354;2023-09-19T02:56:49;23.70;63.70
1329;DHT22;658;48.820;9.354;2023-09-19T03:00:49;23.70;63.90
1329;DHT22;658;48.820;9.354;2023-09-19T03:04:54;23.70;63.70
1329;DHT22;658;48.820;9.354;2023-09-19T03:08:56;23.70;63.90
1329;DHT22;658;48.820;9.354;2023-09-19T03:12:58;23.70;63.60
1329;DHT22;658;48.820;9.354;2023-09-19T03:17:01;23.70;63.60
1329;DHT22;658;48.820;9.354;2023-09-19T03:21:05;23.70;63.60
1329;DHT22;658;48.820;9.354;2023-09-19T03:25:07;23.70;63.60
1329;DHT22;658;48.820;9.354;2023-09-19T03:29:08;23.70;63.60
1329;DHT22;658;48.820;9.354;2023-09-19T03:33:11;23.70;63.60
1329;DHT22;658;48.820;9.354;2023-09-19T03:37:12;23.70;63.70
1329;DHT22;658;48.820;9.354;2023-09-19T03:41:13;23.70;63.70
1329;DHT22;658;48.820;9.354;2023-09-19T03:45:17;23.70;63.50
1329;DHT22;658;48.820;9.354;2023-09-19T03:49:18;23.70;63.60
1329;DHT22;658;48.820;9.354;2023-09-19T03:53:21;23.70;63.90
1329;DHT22;658;48.820;9.354;2023-09-19T03:57:24;23.70;63.50
1329;DHT22;658;48.820;9.354;2023-09-19T04:01:25;23.70;63.60
1329;DHT22;658;48.820;9.354;2023-09-19T04:05:26;23.70;63.50
1329;DHT22;658;48.820;9.354;2023-09-19T04:09:27;23.60;63.50
1329;DHT22;658;48.820;9.354;2023-09-19T04:13:27;23.60;63.80
1329;DHT22;658;48.820;9.354;2023-09-19T04:17:28;23.60;63.40
1329;DHT22;658;48.820;9.354;2023-09-19T04:21:29;23.60;64.30
1329;DHT22;658;48.820;9.354;2023-09-19T04:25:29;23.60;63.50
1329;DHT22;658;48.820;9.354;2023-09-19T04:29:30;23.60;64.30
1329;DHT22;658;48.820;9.354;2023-09-19T04:33:32;23.60;63.90
1329;DHT22;658;48.820;9.354;2023-09-19T04:37:39;23.60;64.20
1329;DHT22;658;48.820;9.354;2023-09-19T04:41:43;23.60;64.60
1329;DHT22;658;48.820;9.354;2023-09-19T04:45:46;23.60;64.80
1329;DHT22;658;48.820;9.354;2023-09-19T04:49:47;23.70;65.10
1329;DHT22;658;48.820;9.354;2023-09-19T04:53:50;23.70;65.80
1329;DHT22;658;48.820;9.354;2023-09-19T04:57:51;23.80;65.60
1329;DHT22;658;48.820;9.354;2023-09-19T05:01:53;23.80;65.30
1329;DHT22;658;48.820;9.354;2023-09-19T05:05:53;23.80;65.20
1329;DHT22;658;48.820;9.354;2023-09-19T05:09:54;23.80;65.20
1329;DHT22;658;48.820;9.354;2023-09-19T05:13:57;23.80;65.30
1329;DHT22;658;48.820;9.354;2023-09-19T05:18:02;23.80;65.30
1329;DHT22;658;48.820;9.354;2023-09-19T05:22:03;23.80;65.30
1329;DHT22;658;48.820;9.354;2023-09-19T05:26:04;23.80;65.70
1329;DHT22;658;48.820;9.354;2023-09-19T05:30:06;23.80;66.50
1329;DHT22;658;48.820;9.354;2023-09-19T05:34:07;23.80;66.50
1329;DHT22;658;48.820;9.354;2023-09-19T05:38:08;23.80;66.50
1329;DHT22;658;48.820;9.354;2023-09-19T05:42:12;23.80;66.20
1329;DHT22;658;48.820;9.354;2023-09-19T05:46:14;23.80;66.30
1329;DHT22;658;48.820;9.354;2023-09-19T05:50:16;23.80;66.00
1329;DHT22;658;48.820;9.354;2023-09-19T05:54:20;23.90;65.90
1329;DHT22;658;48.820;9.354;2023-09-19T05:58:20;23.90;65.80
1329;DHT22;658;48.820;9.354;2023-09-19T06:02:23;23.90;65.50
1329;DHT22;658;48.820;9.354;2023-09-19T06:06:29;24.00;65.90
1329;DHT22;658;48.820;9.354;2023-09-19T06:10:30;24.00;65.70
1329;DHT22;658;48.820;9.354;2023-09-19T06:14:32;24.00;65.80
1329;DHT22;658;48.820;9.354;2023-09-19T06:18:32;24.10;65.70
1329;DHT22;658;48.820;9.354;2023-09-19T06:22:36;24.10;65.50
1329;DHT22;658;48.820;9.354;2023-09-19T06:26:38;24.10;65.30
1329;DHT22;658;48.820;9.354;2023-09-19T06:30:39;24.10;65.10
1329;DHT22;658;48.820;9.354;2023-09-19T06:34:43;24.10;65.00
1329;DHT22;658;48.820;9.354;2023-09-19T06:38:44;24.10;64.60
1329;DHT22;658;48.820;9.354;2023-09-19T06:42:46;24.10;64.30
1329;DHT22;658;48.820;9.354;2023-09-19T06:46:48;24.10;64.20
1329;DHT22;658;48.820;9.354;2023-09-19T06:50:53;24.20;64.20
1329;DHT22;658;48.820;9.354;2023-09-19T06:54:54;24.20;64.00
1329;DHT22;658;48.820;9.354;2023-09-19T06:58:54;24.30;63.90
1329;DHT22;658;48.820;9.354;2023-09-19T07:03:05;24.30;63.90
1329;DHT22;658;48.820;9.354;2023-09-19T07:07:08;24.40;63.80
1329;DHT22;658;48.820;9.354;2023-09-19T07:11:09;24.40;63.90
1329;DHT22;658;48.820;9.354;2023-09-19T07:15:09;24.40;63.90
1329;DHT22;658;48.820;9.354;2023-09-19T07:19:10;24.50;64.00
1329;DHT22;658;48.820;9.354;2023-09-19T07:23:11;24.50;64.00
1329;DHT22;658;48.820;9.354;2023-09-19T07:27:15;24.60;63.80
1329;DHT22;658;48.820;9.354;2023-09-19T07:31:16;24.60;63.50
1329;DHT22;658;48.820;9.354;2023-09-19T07:35:17;24.70;63.50
1329;DHT22;658;48.820;9.354;2023-09-19T07:39:20;24.70;63.40
1329;DHT22;658;48.820;9.354;2023-09-19T07:43:20;24.70;63.20
1329;DHT22;658;48.820;9.354;2023-09-19T07:47:22;24.70;63.00
1329;DHT22;658;48.820;9.354;2023-09-19T07:51:23;24.70;62.90
1329;DHT22;658;48.820;9.354;2023-09-19T07:55:23;24.70;62.80
1329;DHT22;658;48.820;9.354;2023-09-19T07:59:25;24.80;62.80
1329;DHT22;658;48.820;9.354;2023-09-19T08:03:28;24.80;62.60
1329;DHT22;658;48.820;9.354;2023-09-19T08:07:29;24.80;62.40
1329;DHT22;658;48.820;9.354;2023-09-19T08:11:30;24.90;62.40
1329;DHT22;658;48.820;9.354;2023-09-19T08:15:31;24.90;62.10
1329;DHT22;658;48.820;9.354;2023-09-19T08:19:32;25.00;62.00
1329;DHT22;658;48.820;9.354;2023-09-19T08:23:33;25.00;62.50
1329;DHT22;658;48.820;9.354;2023-09-19T08:27:33;24.90;61.60
1329;DHT22;658;48.820;9.354;2023-09-19T08:31:37;24.90;61.30
1329;DHT22;658;48.820;9.354;2023-09-19T08:35:38;24.90;61.30
1329;DHT22;658;48.820;9.354;2023-09-19T08:39:40;24.90;61.30
1329;DHT22;658;48.820;9.354;2023-09-19T08:43:40;24.90;60.90
1329;DHT22;658;48.820;9.354;2023-09-19T08:47:46;24.90;61.10
1329;DHT22;658;48.820;9.354;2023-09-19T08:51:57;24.90;60.50
1329;DHT22;658;48.820;9.354;2023-09-19T08:56:04;24.80;59.90
1329;DHT22;658;48.820;9.354;2023-09-19T09:00:09;24.80;59.60
1329;DHT22;658;48.820;9.354;2023-09-19T09:04:15;24.90;59.50
1329;DHT22;658;48.820;9.354;2023-09-19T09:08:16;24.80;59.20
1329;DHT22;658;48.820;9.354;2023-09-19T09:12:18;24.80;58.60
1329;DHT22;658;48.820;9.354;2023-09-19T09:16:18;24.80;58.80
1329;DHT22;658;48.820;9.354;2023-09-19T09:20:19;24.80;58.60
1329;DHT22;658;48.820;9.354;2023-09-19T09:24:27;24.80;58.70
1329;DHT22;658;48.820;9.354;2023-09-19T09:28:34;24.80;58.20
1329;DHT22;658;48.820;9.354;2023-09-19T09:32:41;24.80;57.90
1329;DHT22;658;48.820;9.354;2023-09-19T09:36:48;24.80;57.20
1329;DHT22;658;48.820;9.354;2023-09-19T09:40:59;24.80;56.80
1329;DHT22;658;48.820;9.354;2023-09-19T09:49:24;24.80;56.60
1329;DHT22;658;48.820;9.354;2023-09-19T09:53:36;25.00;56.50
1329;DHT22;658;48.820;9.354;2023-09-19T09:57:39;25.00;56.00
1329;DHT22;658;48.820;9.354;2023-09-19T10:01:48;24.90;55.10
1329;DHT22;658;48.820;9.354;2023-09-19T10:05:53;25.00;54.70
1329;DHT22;658;48.820;9.354;2023-09-19T10:09:55;25.10;54.90
1329;DHT22;658;48.820;9.354;2023-09-19T10:14:05;25.20;54.70
1329;DHT22;658;48.820;9.354;2023-09-19T10:18:11;25.30;54.90
1329;DHT22;658;48.820;9.354;2023-09-19T10:22:19;25.40;55.10
1329;DHT22;658;48.820;9.354;2023-09-19T10:26:23;25.50;54.40
1329;DHT22;658;48.820;9.354;2023-09-19T10:30:25;25.60;53.80
1329;DHT22;658;48.820;9.354;2023-09-19T10:34:29;25.60;53.50
1329;DHT22;658;48.820;9.354;2023-09-19T10:38:32;25.60;53.10
1329;DHT22;658;48.820;9.354;2023-09-19T10:42:37;25.70;53.00
1329;DHT22;658;48.820;9.354;2023-09-19T10:46:38;25.70;52.70
1329;DHT22;658;48.820;9.354;2023-09-19T10:51:02;25.70;53.10
1329;DHT22;658;48.820;9.354;2023-09-19T10:55:07;25.80;52.70
1329;DHT22;658;48.820;9.354;2023-09-19T10:59:16;25.80;52.30
1329;DHT22;658;48.820;9.354;2023-09-19T11:03:19;25.90;52.60
1329;DHT22;658;48.820;9.354;2023-09-19T11:07:21;25.90;52.20
1329;DHT22;658;48.820;9.354;2023-09-19T11:11:45;26.00;52.50
1329;DHT22;658;48.820;9.354;2023-09-19T11:16:06;26.20;52.60
1329;DHT22;658;48.820;9.354;2023-09-19T11:24:27;26.40;51.20
1329;DHT22;658;48.820;9.354;2023-09-19T11:28:28;26.60;51.00
1329;DHT22;658;48.820;9.354;2023-09-19T11:41:37;26.40;50.90
1329;DHT22;658;48.820;9.354;2023-09-19T11:49:52;26.40;50.70
1329;DHT22;658;48.820;9.354;2023-09-19T11:53:55;26.40;51.40
1329;DHT22;658;48.820;9.354;2023-09-19T11:57:56;26.30;51.20
1329;DHT22;658;48.820;9.354;2023-09-19T12:01:59;26.30;51.90
1329;DHT22;658;48.820;9.354;2023-09-19T12:06:01;26.40;51.60
1329;DHT22;658;48.820;9.354;2023-09-19T12:10:04;26.30;51.70
1329;DHT22;658;48.820;9.354;2023-09-19T12:14:06;26.30;51.40
1329;DHT22;658;48.820;9.354;2023-09-19T12:18:06;26.30;51.20
1329;DHT22;658;48.820;9.354;2023-09-19T12:22:08;26.30;51.80
1329;DHT22;658;48.820;9.354;2023-09-19T12:26:09;26.30;51.10
1329;DHT22;658;48.820;9.354;2023-09-19T12:30:14;26.30;51.80
1329;DHT22;658;48.820;9.354;2023-09-19T12:34:20;26.30;51.50
1329;DHT22;658;48.820;9.354;2023-09-19T12:38:26;26.30;51.30
1329;DHT22;658;48.820;9.354;2023-09-19T12:42:37;26.20;50.60
1329;DHT22;658;48.820;9.354;2023-09-19T12:46:39;26.20;50.50
1329;DHT22;658;48.820;9.354;2023-09-19T12:51:06;26.10;50.40
1329;DHT22;658;48.820;9.354;2023-09-19T12:55:07;26.10;50.50
1329;DHT22;658;48.820;9.354;2023-09-19T12:59:10;26.10;50.60
1329;DHT22;658;48.820;9.354;2023-09-19T13:07:44;26.10;49.90
1329;DHT22;658;48.820;9.354;2023-09-19T13:11:49;26.00;50.00
1329;DHT22;658;48.820;9.354;2023-09-19T13:15:55;26.00;50.40
1329;DHT22;658;48.820;9.354;2023-09-19T13:20:00;26.00;50.10
1329;DHT22;658;48.820;9.354;2023-09-19T13:24:24;26.00;50.90
1329;DHT22;658;48.820;9.354;2023-09-19T13:28:28;26.00;50.40
1329;DHT22;658;48.820;9.354;2023-09-19T13:32:29;26.10;50.50
1329;DHT22;658;48.820;9.354;2023-09-19T13:36:31;26.10;50.60
1329;DHT22;658;48.820;9.354;2023-09-19T13:40:32;26.20;51.00
1329;DHT22;658;48.820;9.354;2023-09-19T13:44:35;26.20;50.70
1329;DHT22;658;48.820;9.354;2023-09-19T13:48:35;26.20;50.90
1329;DHT22;658;48.820;9.354;2023-09-19T13:52:36;26.20;50.20
1329;DHT22;658;48.820;9.354;2023-09-19T13:56:37;26.30;50.30
1329;DHT22;658;48.820;9.354;2023-09-19T14:00:38;26.30;49.80
1329;DHT22;658;48.820;9.354;2023-09-19T14:04:39;26.30;50.50
1329;DHT22;658;48.820;9.354;2023-09-19T14:08:40;26.30;51.00
1329;DHT22;658;48.820;9.354;2023-09-19T14:12:44;26.40;50.40
1329;DHT22;658;48.820;9.354;2023-09-19T14:16:47;26.40;50.10
1329;DHT22;658;48.820;9.354;2023-09-19T14:20:47;26.40;50.40
1329;DHT22;658;48.820;9.354;2023-09-19T14:24:48;26.50;50.00
1329;DHT22;658;48.820;9.354;2023-09-19T14:28:49;26.50;50.90
1329;DHT22;658;48.820;9.354;2023-09-19T14:32:49;26.50;49.80
1329;DHT22;658;48.820;9.354;2023-09-19T14:36:50;26.50;50.60
1329;DHT22;658;48.820;9.354;2023-09-19T14:40:59;26.60;50.40
1329;DHT22;658;48.820;9.354;2023-09-19T14:45:00;26.60;50.60
1329;DHT22;658;48.820;9.354;2023-09-19T14:49:01;26.50;51.20
1329;DHT22;658;48.820;9.354;2023-09-19T14:53:04;26.50;49.40
1329;DHT22;658;48.820;9.354;2023-09-19T14:57:09;26.50;49.30
1329;DHT22;658;48.820;9.354;2023-09-19T15:01:12;26.50;49.10
1329;DHT22;658;48.820;9.354;2023-09-19T15:05:13;26.40;49.40
1329;DHT22;658;48.820;9.354;2023-09-19T15:09:15;26.40;50.20
1329;DHT22;658;48.820;9.354;2023-09-19T15:13:21;26.40;50.10
1329;DHT22;658;48.820;9.354;2023-09-19T15:17:28;26.40;50.10
1329;DHT22;658;48.820;9.354;2023-09-19T15:21:28;26.40;49.20
1329;DHT22;658;48.820;9.354;2023-09-19T15:25:29;26.40;48.90
1329;DHT22;658;48.820;9.354;2023-09-19T15:29:30;26.40;48.70
1329;DHT22;658;48.820;9.354;2023-09-19T15:33:33;26.40;49.80
1329;DHT22;658;48.820;9.354;2023-09-19T15:37:34;26.30;48.80
1329;DHT22;658;48.820;9.354;2023-09-19T15:41:36;26.30;49.30
1329;DHT22;658;48.820;9.354;2023-09-19T15:45:40;26.30;49.80
1329;DHT22;658;48.820;9.354;2023-09-19T15:49:41;26.30;49.90
1329;DHT22;658;48.820;9.354;2023-09-19T15:53:45;26.30;52.00
1329;DHT22;658;48.820;9.354;2023-09-19T15:57:48;26.40;50.10
1329;DHT22;658;48.820;9.354;2023-09-19T16:01:49;26.40;50.70
1329;DHT22;658;48.820;9.354;2023-09-19T16:05:51;26.40;50.30
1329;DHT22;658;48.820;9.354;2023-09-19T16:09:51;26.40;49.10
1329;DHT22;658;48.820;9.354;2023-09-19T16:13:53;26.40;49.80
1329;DHT22;658;48.820;9.354;2023-09-19T16:17:53;26.40;49.60
1329;DHT22;658;48.820;9.354;2023-09-19T16:21:54;26.30;49.60
1329;DHT22;658;48.820;9.354;2023-09-19T16:26:07;26.30;50.30
1329;DHT22;658;48.820;9.354;2023-09-19T16:30:10;26.30;50.40
1329;DHT22;658;48.820;9.354;2023-09-19T16:34:11;26.30;50.60
1329;DHT22;658;48.820;9.354;2023-09-19T16:38:13;26.20;50.60
1329;DHT22;658;48.820;9.354;2023-09-19T16:42:14;26.30;50.80
1329;DHT22;658;48.820;9.354;2023-09-19T16:46:16;26.20;50.80
1329;DHT22;658;48.820;9.354;2023-09-19T16:50:17;26.20;50.90
1329;DHT22;658;48.820;9.354;2023-09-19T16:54:18;26.20;51.10
1329;DHT22;658;48.820;9.354;2023-09-19T16:58:19;26.20;51.30
1329;DHT22;658;48.820;9.354;2023-09-19T17:02:19;26.20;51.40
1329;DHT22;658;48.820;9.354;2023-09-19T17:06:20;26.10;51.50
1329;DHT22;658;48.820;9.354;2023-09-19T17:10:22;26.10;51.60
1329;DHT22;658;48.820;9.354;2023-09-19T17:14:23;26.10;51.70
1329;DHT22;658;48.820;9.354;2023-09-19T17:18:23;26.10;51.80
1329;DHT22;658;48.820;9.354;2023-09-19T17:22:24;26.10;52.00
1329;DHT22;658;48.820;9.354;2023-09-19T17:26:24;26.10;52.10
1329;DHT22;658;48.820;9.354;2023-09-19T17:30:25;26.00;52.30
1329;DHT22;658;48.820;9.354;2023-09-19T17:34:27;26.00;52.40
1329;DHT22;658;48.820;9.354;2023-09-19T17:38:28;26.00;52.50
1329;DHT22;658;48.820;9.354;2023-09-19T17:42:28;26.00;52.60
1329;DHT22;658;48.820;9.354;2023-09-19T17:46:29;26.00;53.10
1329;DHT22;658;48.820;9.354;2023-09-19T17:50:32;26.00;53.00
1329;DHT22;658;48.820;9.354;2023-09-19T17:54:33;26.00;53.60
1329;DHT22;658;48.820;9.354;2023-09-19T17:58:35;26.00;53.10
1329;DHT22;658;48.820;9.354;2023-09-19T18:02:36;26.00;53.20
1329;DHT22;658;48.820;9.354;2023-09-19T18:06:39;26.10;53.30
1329;DHT22;658;48.820;9.354;2023-09-19T18:10:41;26.00;53.40
1329;DHT22;658;48.820;9.354;2023-09-19T18:14:42;26.10;53.50
1329;DHT22;658;48.820;9.354;2023-09-19T18:18:42;26.10;53.60
1329;DHT22;658;48.820;9.354;2023-09-19T18:22:47;26.00;53.70
1329;DHT22;658;48.820;9.354;2023-09-19T18:26:47;26.00;53.70
1329;DHT22;658;48.820;9.354;2023-09-19T18:30:48;26.10;53.90
1329;DHT22;658;48.820;9.354;2023-09-19T18:34:49;26.00;53.90
1329;DHT22;658;48.820;9.354;2023-09-19T18:38:49;26.00;53.90
1329;DHT22;658;48.820;9.354;2023-09-19T18:42:52;26.10;54.10
1329;DHT22;658;48.820;9.354;2023-09-19T18:46:53;26.10;54.00
1329;DHT22;658;48.820;9.354;2023-09-19T18:50:55;26.10;54.10
1329;DHT22;658;48.820;9.354;2023-09-19T18:54:56;26.00;54.10
1329;DHT22;658;48.820;9.354;2023-09-19T18:58:56;26.10;54.20
1329;DHT22;658;48.820;9.354;2023-09-19T19:02:57;26.00;54.20
1329;DHT22;658;48.820;9.354;2023-09-19T19:06:57;26.10;54.30
1329;DHT22;658;48.820;9.354;2023-09-19T19:10:59;26.10;54.30
1329;DHT22;658;48.820;9.354;2023-09-19T19:15:00;26.00;54.20
1329;DHT22;658;48.820;9.354;2023-09-19T19:19:01;26.00;54.20
1329;DHT22;658;48.820;9.354;2023-09-19T19:23:02;26.00;54.20
1329;DHT22;658;48.820;9.354;2023-09-19T19:27:05;26.10;54.40
1329;DHT22;658;48.820;9.354;2023-09-19T19:31:07;26.00;54.50
1329;DHT22;658;48.820;9.354;2023-09-19T19:35:09;26.00;54.50
1329;DHT22;658;48.820;9.354;2023-09-19T19:39:12;26.00;54.70
1329;DHT22;658;48.820;9.354;2023-09-19T19:43:13;26.00;54.80
1329;DHT22;658;48.820;9.354;2023-09-19T19:47:16;26.00;54.70
1329;DHT22;658;48.820;9.354;2023-09-19T19:51:17;26.00;54.90
1329;DHT22;658;48.820;9.354;2023-09-19T19:55:18;26.00;54.90
1329;DHT22;658;48.820;9.354;2023-09-19T19:59:25;25.90;55.10
1329;DHT22;658;48.820;9.354;2023-09-19T20:03:27;26.00;55.10
1329;DHT22;658;48.820;9.354;2023-09-19T20:07:27;26.00;55.00
1329;DHT22;658;48.820;9.354;2023-09-19T20:11:28;26.00;54.90
1329;DHT22;658;48.820;9.354;2023-09-19T20:15:29;25.90;54.80
1329;DHT22;658;48.820;9.354;2023-09-19T20:19:30;26.00;54.90
1329;DHT22;658;48.820;9.354;2023-09-19T20:23:37;25.90;54.80
1329;DHT22;658;48.820;9.354;2023-09-19T20:27:46;25.90;54.80
1329;DHT22;658;48.820;9.354;2023-09-19T20:31:47;25.90;54.90
1329;DHT22;658;48.820;9.354;2023-09-19T20:35:51;25.90;55.50
1329;DHT22;658;48.820;9.354;2023-09-19T20:39:57;25.90;54.90
1329;DHT22;658;48.820;9.354;2023-09-19T20:43:57;25.90;54.90
1329;DHT22;658;48.820;9.354;2023-09-19T20:47:58;25.90;54.90
1329;DHT22;658;48.820;9.354;2023-09-19T20:51:59;25.90;54.90
1329;DHT22;658;48.820;9.354;2023-09-19T20:56:01;25.90;55.00
1329;DHT22;658;48.820;9.354;2023-09-19T21:00:08;25.80;54.90
1329;DHT22;658;48.820;9.354;2023-09-19T21:04:09;25.80;55.00
1329;DHT22;658;48.820;9.354;2023-09-19T21:08:10;25.80;55.00
1329;DHT22;658;48.820;9.354;2023-09-19T21:12:11;25.80;55.10
1329;DHT22;658;48.820;9.354;2023-09-19T21:16:12;25.70;55.10
1329;DHT22;658;48.820;9.354;2023-09-19T21:20:15;25.70;55.10
1329;DHT22;658;48.820;9.354;2023-09-19T21:24:19;25.60;55.10
1329;DHT22;658;48.820;9.354;2023-09-19T21:28:21;25.60;55.20
1329;DHT22;658;48.820;9.354;2023-09-19T21:32:22;25.60;55.30
1329;DHT22;658;48.820;9.354;2023-09-19T21:36:24;25.60;55.50
1329;DHT22;658;48.820;9.354;2023-09-19T21:40:29;25.60;55.60
1329;DHT22;658;48.820;9.354;2023-09-19T21:44:32;25.60;55.60
1329;DHT22;658;48.820;9.354;2023-09-19T21:48:35;25.50;55.50
1329;DHT22;658;48.820;9.354;2023-09-19T21:52:36;25.50;55.60
1329;DHT22;658;48.820;9.354;2023-09-19T21:56:36;25.50;55.60
1329;DHT22;658;48.820;9.354;2023-09-19T22:00:37;25.40;55.60
1329;DHT22;658;48.820;9.354;2023-09-19T22:04:40;25.40;55.60
1329;DHT22;658;48.820;9.354;2023-09-19T22:08:41;25.40;55.70
1329;DHT22;658;48.820;9.354;2023-09-19T22:12:41;25.40;55.70
1329;DHT22;658;48.820;9.354;2023-09-19T22:16:42;25.30;55.70
1329;DHT22;658;48.820;9.354;2023-09-19T22:20:42;25.30;55.80
1329;DHT22;658;48.820;9.354;2023-09-19T22:24:59;25.30;55.80
1329;DHT22;658;48.820;9.354;2023-09-19T22:29:00;25.30;55.90
1329;DHT22;658;48.820;9.354;2023-09-19T22:33:01;25.30;55.90
1329;DHT22;658;48.820;9.354;2023-09-19T22:37:01;25.20;55.90
1329;DHT22;658;48.820;9.354;2023-09-19T22:41:03;25.20;56.00
1329;DHT22;658;48.820;9.354;2023-09-19T22:45:10;25.20;56.10
1329;DHT22;658;48.820;9.354;2023-09-19T22:49:12;25.20;56.10
1329;DHT22;658;48.820;9.354;2023-09-19T22:53:17;25.10;56.10
1329;DHT22;658;48.820;9.354;2023-09-19T22:57:21;25.10;56.70
1329;DHT22;658;48.820;9.354;2023-09-19T23:01:23;25.10;56.10
1329;DHT22;658;48.820;9.354;2023-09-19T23:05:37;25.10;56.20
1329;DHT22;658;48.820;9.354;2023-09-19T23:09:42;25.10;56.20
1329;DHT22;658;48.820;9.354;2023-09-19T23:13:43;25.00;56.20
1329;DHT22;658;48.820;9.354;2023-09-19T23:17:44;25.00;56.30
1329;DHT22;658;48.820;9.354;2023-09-19T23:21:48;25.00;56.20
1329;DHT22;658;48.820;9.354;2023-09-19T23:25:52;25.00;56.30
1329;DHT22;658;48.820;9.354;2023-09-19T23:29:53;25.00;56.30
1329;DHT22;658;48.820;9.354;2023-09-19T23:33:57;25.00;56.30
1329;DHT22;658;48.820;9.354;2023-09-19T23:37:58;24.90;56.30
1329;DHT22;658;48.820;9.354;2023-09-19T23:41:59;24.90;56.30
1329;DHT22;658;48.820;9.354;2023-09-19T23:46:01;24.90;56.20
1329;DHT22;658;48.820;9.354;2023-09-19T23:50:06;24.90;56.20
1329;DHT22;658;48.820;9.354;2023-09-19T23:54:09;24.90;56.30
1329;DHT22;658;48.820;9.354;2023-09-19T23:58:26;24.90;56.20
